Nearby METAR Reports

 

KHOT - Hot Springs, Arkansas, USA
Distance from station: W 8mi, 14km
Updated: 09/25/2017 9:53pm
Clear
Clear
 Wind from ENE
Wind: ENE 3 mph , 6 km/h
Temperature: 75°F , 24°C
Dew Point: 64°F , 18°C
Humidity: 69%
Barometer: 29.93 inHg , 1013.5 hPa
Clouds: Clear
Visibility: 10 miles , 16 km
2017/09/26 02:53 KHOT 260253Z AUTO 07003KT 10SM CLR 24/18 A2993 RMK AO2 SLP128 T02390183 53015
KMWT - Mount Ida, Arkansas, USA
Distance from station: W 36mi, 58km
Updated: 09/25/2017 9:53pm
Clear
Clear
 Wind from calm
Wind: Calm
Temperature: 72°F , 22°C
Dew Point: 64°F , 18°C
Humidity: 78%
Barometer: 29.92 inHg , 1013.2 hPa
Clouds: Clear
Visibility: 10 miles , 16 km
2017/09/26 02:53 KMWT 260253Z AUTO 00000KT 10SM CLR 22/18 A2992 RMK AO2 SLP122 T02220178 53015
 
KLIT - Little Rock, Arkansas, USA
Distance from station: ENE 45mi, 73km
Updated: 09/25/2017 9:53pm
Few Clouds
Few Clouds
 Wind from calm
Wind: Calm
Temperature: 73°F , 23°C
Dew Point: 70°F , 21°C
Humidity: 89%
Barometer: 29.92 inHg , 1013.2 hPa
Clouds: Few Clouds
Visibility: 10 miles , 16 km
Cloud details: Few Clouds 25000 ft
2017/09/26 02:53 KLIT 260253Z 00000KT 10SM FEW250 23/21 A2992 RMK AO2 SLP132 T02330206 51014
KLRF - Little Rock Afb, Arkansas, USA
Distance from station: NE 56mi, 89km
Updated: 09/25/2017 9:58pm
Clear
Clear
 Wind from calm
Wind: Calm
Temperature: 73°F , 23°C
Dew Point: 66°F , 19°C
Humidity: 78%
Barometer: 29.92 inHg , 1013.2 hPa
Clouds: Clear
Visibility: 10 miles , 16 km
2017/09/26 02:58 KLRF 260258Z AUTO 00000KT 10SM CLR 23/19 A2992 RMK AO2 SLP132 T02290189 52012